Time;durP1;ratioP1;P1;durP2;ratioP2;P2;SDS_P1;SDS_P2;PMS_P1;PMS_P2;Temp;Humidity;BMP_temperature;BMP_pressure;BME280_temperature;BME280_humidity;BME280_pressure;Samples;Min_cycle;Max_cycle;Signal;HPM_P1;HPM_P2
2024/03/10 00:01:48;;;;;;;11.23;6.63;;;7.40;95.10;;;;;;5096468;27;20040;-77
2024/03/10 00:04:36;;;;;;;13.60;7.30;;;7.30;95.30;;;;;;5097712;28;20039;-77
2024/03/10 00:07:23;;;;;;;11.32;6.18;;;7.30;97.40;;;;;;5094261;28;20055;-78
2024/03/10 00:10:14;;;;;;;11.80;6.55;;;7.20;97.80;;;;;;5100224;27;20048;-77
2024/03/10 00:13:03;;;;;;;10.40;6.40;;;7.10;99.90;;;;;;5099964;28;20040;-80
2024/03/10 00:15:51;;;;;;;10.18;6.70;;;7.00;99.90;;;;;;5097797;28;20051;-79
2024/03/10 00:18:40;;;;;;;9.40;5.32;;;6.80;99.90;;;;;;5094650;28;20054;-76
2024/03/10 00:21:28;;;;;;;9.00;5.35;;;6.70;99.90;;;;;;5096782;28;20605;-78
2024/03/10 00:24:20;;;;;;;8.50;5.25;;;6.80;99.90;;;;;;5097762;27;20070;-77
2024/03/10 00:27:12;;;;;;;7.22;4.65;;;6.80;99.90;;;;;;5110820;28;20032;-78
2024/03/10 00:29:59;;;;;;;7.65;4.93;;;6.80;99.90;;;;;;5098612;28;20047;-78
2024/03/10 00:32:47;;;;;;;7.30;4.93;;;6.90;99.90;;;;;;5078717;28;20056;-79
2024/03/10 00:35:35;;;;;;;10.02;5.15;;;6.90;98.20;;;;;;5075944;28;20036;-78
2024/03/10 00:38:24;;;;;;;8.90;5.28;;;6.90;96.10;;;;;;5083221;28;20456;-77
2024/03/10 00:41:11;;;;;;;9.55;5.43;;;6.90;96.70;;;;;;5098443;27;20043;-80
2024/03/10 00:43:59;;;;;;;8.05;5.22;;;6.80;95.80;;;;;;5092764;28;20082;-79
2024/03/10 00:46:47;;;;;;;10.07;5.28;;;6.80;95.20;;;;;;5084375;28;20052;-78
2024/03/10 00:49:35;;;;;;;11.05;5.00;;;6.70;96.90;;;;;;5094991;28;20047;-78
2024/03/10 00:52:22;;;;;;;5.90;4.25;;;6.60;99.90;;;;;;5083641;28;20047;-79
2024/03/10 00:55:10;;;;;;;7.30;4.32;;;6.60;99.90;;;;;;5083714;28;20040;-78
2024/03/10 00:57:59;;;;;;;8.27;5.07;;;6.60;96.90;;;;;;5091053;28;20122;-78
2024/03/10 01:00:46;;;;;;;8.93;4.72;;;6.60;96.30;;;;;;5093870;28;20152;-78
2024/03/10 01:03:34;;;;;;;7.18;4.82;;;6.60;96.70;;;;;;5094860;28;20048;-79
2024/03/10 01:06:21;;;;;;;5.13;4.10;;;6.70;96.80;;;;;;5104734;28;20044;-77
2024/03/10 01:09:10;;;;;;;4.68;3.67;;;6.80;92.20;;;;;;5089598;28;20055;-76
2024/03/10 01:11:59;;;;;;;5.55;3.78;;;6.90;78.00;;;;;;5103212;28;20484;-78
2024/03/10 01:14:46;;;;;;;6.68;4.30;;;7.00;71.60;;;;;;5078440;28;20050;-78
2024/03/10 01:17:34;;;;;;;6.05;4.03;;;7.10;67.70;;;;;;5098315;28;20114;-79
2024/03/10 01:20:22;;;;;;;5.72;4.00;;;7.10;60.10;;;;;;5083439;28;20051;-78
2024/03/10 01:23:10;;;;;;;11.13;4.53;;;7.20;61.90;;;;;;5087356;28;20074;-78
2024/03/10 01:25:58;;;;;;;5.43;4.25;;;7.10;60.60;;;;;;5097783;28;20173;-79
2024/03/10 01:28:45;;;;;;;5.85;3.85;;;7.10;61.80;;;;;;5098133;28;20047;-79
2024/03/10 01:31:33;;;;;;;7.32;5.07;;;7.10;65.50;;;;;;5097363;28;20036;-78
2024/03/10 01:34:20;;;;;;;6.72;4.75;;;7.10;71.00;;;;;;5112354;28;20623;-78
2024/03/10 01:37:08;;;;;;;8.38;4.88;;;7.10;74.00;;;;;;5120925;27;20125;-79
2024/03/10 01:39:55;;;;;;;7.55;4.43;;;7.10;75.70;;;;;;5100445;28;20496;-79
2024/03/10 01:42:43;;;;;;;7.85;4.53;;;7.10;78.60;;;;;;5110730;27;20055;-76
2024/03/10 01:45:32;;;;;;;6.78;5.20;;;7.10;81.00;;;;;;5111004;28;20039;-77
2024/03/10 01:48:22;;;;;;;7.53;4.85;;;7.10;85.20;;;;;;5101786;28;20437;-78
2024/03/10 01:51:13;;;;;;;8.95;5.75;;;7.10;90.70;;;;;;5106514;27;20043;-78
2024/03/10 01:54:01;;;;;;;6.90;4.97;;;7.10;92.70;;;;;;5086026;28;20032;-78
2024/03/10 01:56:50;;;;;;;8.13;5.82;;;7.00;94.90;;;;;;5100932;27;20047;-79
2024/03/10 01:59:38;;;;;;;7.38;5.35;;;7.00;96.30;;;;;;5083316;28;20200;-79
2024/03/10 02:02:26;;;;;;;7.32;5.10;;;6.90;97.50;;;;;;5102382;27;20043;-78
2024/03/10 02:05:13;;;;;;;8.55;5.57;;;6.90;99.30;;;;;;5107687;28;20043;-79
2024/03/10 02:08:01;;;;;;;8.70;5.78;;;6.90;99.90;;;;;;5117856;27;20036;-76
2024/03/10 02:10:50;;;;;;;7.70;5.25;;;6.90;99.90;;;;;;5124906;27;20067;-76
2024/03/10 02:13:37;;;;;;;8.27;5.40;;;6.90;99.90;;;;;;5118262;28;20140;-77
2024/03/10 02:16:25;;;;;;;8.07;5.75;;;6.90;99.90;;;;;;5105842;28;20135;-76
2024/03/10 02:19:16;;;;;;;8.65;5.82;;;7.00;99.90;;;;;;5100695;28;20031;-77
2024/03/10 02:22:08;;;;;;;8.38;5.40;;;7.00;99.90;;;;;;5100671;28;20047;-77
2024/03/10 02:25:02;;;;;;;9.05;5.70;;;7.00;99.90;;;;;;5067413;28;20036;-78
2024/03/10 02:27:52;;;;;;;9.05;5.13;;;7.10;99.90;;;;;;5099589;28;20116;-76
2024/03/10 02:30:55;;;;;;;9.32;5.72;;;7.10;99.90;;;;;;5112925;27;20101;-79
2024/03/10 02:49:15;;;;;;;8.07;5.40;;;6.20;99.90;;;;;;5100377;28;20039;-79
2024/03/10 02:52:03;;;;;;;6.55;5.13;;;6.00;99.90;;;;;;5098308;28;20051;-78
2024/03/10 02:54:51;;;;;;;8.23;5.30;;;6.00;99.90;;;;;;5079590;28;20122;-78
2024/03/10 02:57:38;;;;;;;9.65;5.82;;;6.00;99.90;;;;;;5112748;27;20209;-79
2024/03/10 03:00:26;;;;;;;9.85;5.55;;;6.00;99.90;;;;;;5102532;27;20043;-78
2024/03/10 03:03:13;;;;;;;10.93;5.75;;;5.90;99.90;;;;;;5108470;27;20055;-79
2024/03/10 03:06:01;;;;;;;7.80;5.38;;;5.90;99.90;;;;;;5114528;27;20058;-78
2024/03/10 03:08:53;;;;;;;9.52;5.78;;;5.90;99.90;;;;;;5107313;27;20123;-78
2024/03/10 03:11:40;;;;;;;12.30;6.05;;;5.90;99.90;;;;;;5110982;28;20085;-78
2024/03/10 03:14:28;;;;;;;8.77;5.50;;;6.00;99.90;;;;;;5102674;28;20046;-78
2024/03/10 03:17:15;;;;;;;9.50;5.70;;;6.00;99.90;;;;;;5102375;28;20042;-78
2024/03/10 03:20:15;;;;;;;8.93;5.35;;;6.10;99.90;;;;;;5097328;27;20039;-78
2024/03/10 03:23:04;;;;;;;9.73;5.25;;;6.10;99.90;;;;;;5097985;27;20044;-78
2024/03/10 03:25:53;;;;;;;14.65;6.18;;;6.20;99.90;;;;;;5101362;28;20122;-78
2024/03/10 03:28:41;;;;;;;12.98;6.18;;;6.30;99.90;;;;;;5100120;28;20052;-77
2024/03/10 03:31:28;;;;;;;10.10;6.93;;;6.20;99.90;;;;;;5082456;27;20039;-77
2024/03/10 03:34:16;;;;;;;11.55;7.03;;;6.10;99.90;;;;;;5088953;28;20182;-78
2024/03/10 03:37:04;;;;;;;10.65;7.18;;;5.90;99.90;;;;;;5108139;27;20392;-76
2024/03/10 03:39:53;;;;;;;7.40;5.43;;;5.80;99.90;;;;;;5096516;28;20061;-79
2024/03/10 03:42:41;;;;;;;6.80;5.03;;;5.80;99.90;;;;;;5094197;27;20424;-76
2024/03/10 03:45:28;;;;;;;8.60;4.97;;;5.90;99.90;;;;;;5100714;28;20043;-78
2024/03/10 03:48:16;;;;;;;7.30;4.90;;;6.00;99.90;;;;;;5105943;28;20048;-79
2024/03/10 03:51:06;;;;;;;9.23;4.88;;;6.10;99.90;;;;;;5090479;28;20040;-77
2024/03/10 03:53:55;;;;;;;6.82;4.78;;;6.20;99.90;;;;;;5108978;27;20035;-78
2024/03/10 03:56:43;;;;;;;6.55;4.50;;;6.20;99.90;;;;;;5100287;27;20062;-79
2024/03/10 03:59:30;;;;;;;7.65;4.72;;;6.20;99.90;;;;;;5093297;28;20035;-79
2024/03/10 04:02:25;;;;;;;5.25;3.95;;;6.20;99.90;;;;;;5099026;28;20071;-79
2024/03/10 04:05:14;;;;;;;7.35;4.53;;;6.20;99.90;;;;;;5089807;28;20054;-79
2024/03/10 04:08:03;;;;;;;6.60;4.47;;;6.20;99.90;;;;;;5105816;28;20044;-79
2024/03/10 04:10:51;;;;;;;5.15;3.55;;;6.20;99.90;;;;;;5109777;28;20086;-78
2024/03/10 04:13:40;;;;;;;6.97;3.95;;;6.30;99.90;;;;;;5092649;28;20130;-77
2024/03/10 04:16:29;;;;;;;4.60;3.80;;;6.30;99.90;;;;;;5095409;27;20112;-77
2024/03/10 04:19:20;;;;;;;6.35;4.05;;;6.30;99.90;;;;;;5090216;28;20498;-76
2024/03/10 04:22:09;;;;;;;4.47;3.50;;;6.20;99.90;;;;;;5093840;28;20048;-78
2024/03/10 04:24:58;;;;;;;6.85;3.40;;;6.20;99.90;;;;;;5077632;28;20177;-77
2024/03/10 04:27:47;;;;;;;5.95;4.22;;;6.20;99.90;;;;;;5081696;28;20055;-76
2024/03/10 04:30:37;;;;;;;5.60;4.10;;;6.20;99.90;;;;;;5109274;28;20039;-78
2024/03/10 04:33:25;;;;;;;6.00;4.07;;;6.10;99.90;;;;;;5096398;28;20035;-77
2024/03/10 04:36:14;;;;;;;5.47;3.70;;;6.10;99.90;;;;;;5103245;28;20067;-80
2024/03/10 04:39:02;;;;;;;5.53;4.07;;;6.00;99.90;;;;;;5101036;28;20044;-77
2024/03/10 04:41:49;;;;;;;7.13;4.47;;;6.00;99.90;;;;;;5084645;28;20209;-78
2024/03/10 04:44:37;;;;;;;7.32;4.35;;;6.00;99.90;;;;;;5106166;28;20071;-79
2024/03/10 04:47:26;;;;;;;8.18;4.22;;;6.00;99.90;;;;;;5086247;28;20051;-77
2024/03/10 04:50:14;;;;;;;4.97;3.65;;;6.00;99.90;;;;;;5078071;28;20051;-77
2024/03/10 04:53:01;;;;;;;5.35;3.58;;;6.10;99.90;;;;;;5099424;28;20510;-78
2024/03/10 04:55:49;;;;;;;5.70;3.78;;;6.10;99.90;;;;;;5101791;28;20101;-77
2024/03/10 04:58:37;;;;;;;4.60;3.53;;;6.20;99.90;;;;;;5086757;28;20533;-78
2024/03/10 05:01:28;;;;;;;3.78;2.97;;;6.20;99.90;;;;;;5098984;28;20044;-78
2024/03/10 05:04:16;;;;;;;7.55;3.65;;;6.20;99.90;;;;;;5100043;28;20102;-78
2024/03/10 05:07:04;;;;;;;7.80;3.28;;;6.30;99.90;;;;;;5101537;28;20047;-75
2024/03/10 05:09:52;;;;;;;4.32;3.35;;;6.30;99.90;;;;;;5103930;28;20168;-77
2024/03/10 05:12:40;;;;;;;4.75;3.28;;;6.40;99.90;;;;;;5101291;27;20196;-77
2024/03/10 05:15:28;;;;;;;4.97;3.35;;;6.40;99.90;;;;;;5114351;27;20496;-78
2024/03/10 05:18:15;;;;;;;5.57;3.40;;;6.40;99.70;;;;;;5086990;27;20048;-78
2024/03/10 05:21:06;;;;;;;5.35;3.92;;;6.30;98.40;;;;;;5107502;28;20044;-77
2024/03/10 05:23:54;;;;;;;4.82;3.30;;;6.30;99.40;;;;;;5117708;28;20048;-77
2024/03/10 05:26:42;;;;;;;4.70;3.10;;;6.20;99.90;;;;;;5101086;27;20138;-78
2024/03/10 05:29:30;;;;;;;4.78;3.10;;;6.10;99.60;;;;;;5102779;27;20043;-78
2024/03/10 05:32:19;;;;;;;4.22;3.22;;;6.10;97.80;;;;;;5103162;28;20412;-79
2024/03/10 05:35:06;;;;;;;5.63;3.67;;;6.00;97.10;;;;;;5100617;27;20092;-78
2024/03/10 05:37:54;;;;;;;6.88;3.80;;;5.90;99.90;;;;;;5105765;27;20120;-79
2024/03/10 05:40:42;;;;;;;4.57;3.25;;;5.70;99.90;;;;;;5107173;27;20051;-79
2024/03/10 05:43:30;;;;;;;5.22;3.50;;;5.60;99.90;;;;;;5103801;27;20038;-78
2024/03/10 05:46:18;;;;;;;4.80;3.38;;;5.50;99.90;;;;;;5100546;28;20047;-76
2024/03/10 05:49:06;;;;;;;3.47;3.03;;;5.50;99.90;;;;;;5103138;27;20051;-77
2024/03/10 05:51:54;;;;;;;4.68;2.97;;;5.60;99.90;;;;;;5102313;27;20047;-79
2024/03/10 05:54:41;;;;;;;5.55;3.17;;;5.70;99.90;;;;;;5107208;28;20040;-76
2024/03/10 05:57:29;;;;;;;4.05;2.80;;;5.90;99.90;;;;;;5093977;28;20065;-77
2024/03/10 06:00:23;;;;;;;5.78;3.05;;;6.00;98.50;;;;;;5102542;27;20047;-78
2024/03/10 06:03:10;;;;;;;5.05;2.80;;;6.10;94.90;;;;;;5101547;27;20043;-77
2024/03/10 06:05:57;;;;;;;4.90;3.22;;;6.10;90.80;;;;;;5113314;28;20489;-77
2024/03/10 06:08:47;;;;;;;5.72;3.40;;;6.10;91.50;;;;;;5105650;27;20140;-77
2024/03/10 06:11:35;;;;;;;3.70;3.22;;;6.00;92.40;;;;;;5111434;27;20043;-78
2024/03/10 06:14:26;;;;;;;5.88;3.20;;;5.90;95.40;;;;;;5102027;28;20051;-78
2024/03/10 06:17:14;;;;;;;5.38;3.38;;;5.80;98.20;;;;;;5103561;28;20170;-78
2024/03/10 06:26:23;;;;;;;7.35;3.10;;;5.80;99.90;;;;;;5103705;28;20054;-79
2024/03/10 06:29:11;;;;;;;4.57;3.58;;;5.90;99.10;;;;;;5081590;28;20082;-77
2024/03/10 06:31:59;;;;;;;6.63;4.40;;;6.00;97.40;;;;;;5100991;28;20055;-78
2024/03/10 06:34:49;;;;;;;7.35;4.75;;;5.80;99.90;;;;;;5097875;28;20048;-79
2024/03/10 06:37:36;;;;;;;6.45;4.15;;;5.60;99.90;;;;;;5092364;27;20050;-79
2024/03/10 06:40:24;;;;;;;6.03;3.58;;;5.50;99.90;;;;;;5084654;28;20063;-77
2024/03/10 06:43:12;;;;;;;5.25;3.90;;;5.50;99.90;;;;;;5103759;28;20547;-77
2024/03/10 06:46:02;;;;;;;3.85;3.13;;;5.50;99.90;;;;;;5100708;27;20059;-79
2024/03/10 06:48:52;;;;;;;6.15;3.45;;;5.60;99.90;;;;;;5103293;27;20451;-78
2024/03/10 06:51:39;;;;;;;4.22;3.00;;;5.60;99.90;;;;;;5101945;28;20059;-77
2024/03/10 06:54:27;;;;;;;3.70;3.00;;;5.60;99.90;;;;;;5109131;27;20109;-79
2024/03/10 06:57:15;;;;;;;4.53;3.33;;;5.70;99.90;;;;;;5088498;28;20632;-79
2024/03/10 07:00:07;;;;;;;3.67;2.83;;;5.80;99.90;;;;;;5104445;27;20055;-78
2024/03/10 07:02:57;;;;;;;4.47;2.95;;;5.80;99.90;;;;;;5086419;28;20542;-78
2024/03/10 07:05:44;;;;;;;3.63;3.00;;;5.90;99.90;;;;;;5100033;27;20169;-78
2024/03/10 07:08:32;;;;;;;3.63;2.88;;;5.90;99.90;;;;;;5099140;28;20066;-77
2024/03/10 07:11:20;;;;;;;7.07;3.08;;;5.90;99.90;;;;;;5088781;27;20054;-79
2024/03/10 07:14:09;;;;;;;5.40;3.42;;;5.90;99.90;;;;;;5086113;28;20827;-79
2024/03/10 07:17:01;;;;;;;3.47;2.80;;;6.00;99.90;;;;;;5100897;27;20046;-78
2024/03/10 07:19:48;;;;;;;5.25;3.47;;;5.90;99.90;;;;;;5102182;27;20042;-76
2024/03/10 07:22:41;;;;;;;4.63;3.33;;;6.00;99.90;;;;;;5099640;28;20117;-78
2024/03/10 07:25:30;;;;;;;3.67;2.88;;;6.10;99.90;;;;;;5096690;28;20048;-77
2024/03/10 07:28:23;;;;;;;5.70;4.13;;;6.10;99.90;;;;;;5104735;27;20557;-77
2024/03/10 07:31:11;;;;;;;3.85;3.10;;;6.20;99.90;;;;;;5099615;28;20048;-77
2024/03/10 07:33:59;;;;;;;4.78;3.33;;;6.40;99.90;;;;;;5089465;28;20047;-77
2024/03/10 07:36:48;;;;;;;9.20;3.10;;;6.50;99.90;;;;;;5110745;28;20044;-77
2024/03/10 07:39:36;;;;;;;3.90;3.13;;;6.70;99.90;;;;;;5102434;28;20673;-77
2024/03/10 07:42:25;;;;;;;3.63;3.20;;;6.90;99.60;;;;;;5111737;28;20138;-77
2024/03/10 07:45:17;;;;;;;9.15;3.80;;;7.00;98.50;;;;;;5089428;28;20067;-78
2024/03/10 07:48:05;;;;;;;5.22;3.38;;;7.00;92.30;;;;;;5117541;28;20031;-79
2024/03/10 07:50:53;;;;;;;5.95;3.50;;;7.20;90.40;;;;;;5108253;28;20058;-76
2024/03/10 07:53:42;;;;;;;5.53;2.90;;;7.60;96.30;;;;;;5095303;28;20043;-76
2024/03/10 07:56:33;;;;;;;6.15;3.13;;;8.30;78.70;;;;;;5106222;28;20047;-78
2024/03/10 07:59:23;;;;;;;2.90;2.30;;;8.80;48.70;;;;;;5095637;28;20035;-79
2024/03/10 08:02:11;;;;;;;4.65;2.20;;;9.20;40.30;;;;;;5114850;28;20044;-80
2024/03/10 08:05:10;;;;;;;3.13;2.10;;;9.40;27.10;;;;;;5119052;27;20039;-78
2024/03/10 08:07:59;;;;;;;3.72;2.50;;;9.50;16.70;;;;;;5113929;28;20558;-81
2024/03/10 08:10:46;;;;;;;4.55;2.70;;;9.60;12.90;;;;;;5111009;28;20067;-79
2024/03/10 08:13:35;;;;;;;4.30;2.42;;;9.60;11.10;;;;;;5102336;28;20656;-79
2024/03/10 08:16:23;;;;;;;3.05;2.45;;;9.70;7.90;;;;;;5101229;28;20423;-77
2024/03/10 08:19:12;;;;;;;3.15;2.63;;;9.70;3.30;;;;;;5101159;28;20058;-77
2024/03/10 08:21:59;;;;;;;3.35;2.65;;;9.80;1.10;;;;;;5087878;27;20115;-80
2024/03/10 08:24:48;;;;;;;3.67;2.15;;;9.70;1.00;;;;;;5110533;27;20056;-77
2024/03/10 08:27:35;;;;;;;4.07;2.65;;;9.70;1.00;;;;;;5099263;28;20047;-80
2024/03/10 08:30:23;;;;;;;4.13;2.90;;;9.70;1.00;;;;;;5098503;27;20039;-74
2024/03/10 08:33:13;;;;;;;3.78;2.40;;;9.80;1.00;;;;;;5115799;28;20050;-82
2024/03/10 08:36:01;;;;;;;3.05;2.40;;;9.90;1.00;;;;;;5087427;27;20040;-79
2024/03/10 08:38:49;;;;;;;2.88;2.50;;;9.90;1.00;;;;;;5096416;28;20064;-78
2024/03/10 08:41:37;;;;;;;4.43;2.80;;;9.90;1.00;;;;;;5092616;28;20043;-77
2024/03/10 08:44:26;;;;;;;4.18;2.40;;;9.90;1.00;;;;;;5090989;28;20158;-80
2024/03/10 08:47:13;;;;;;;3.17;2.20;;;9.80;1.00;;;;;;5105749;28;20039;-80
2024/03/10 08:50:03;;;;;;;2.35;2.10;;;9.90;1.00;;;;;;5083216;28;20083;-78
2024/03/10 08:52:51;;;;;;;3.28;2.20;;;10.00;1.00;;;;;;5086331;28;20051;-79
2024/03/10 08:55:39;;;;;;;5.72;2.13;;;10.00;1.00;;;;;;5082873;28;20040;-79
2024/03/10 08:58:29;;;;;;;2.80;2.03;;;10.00;1.00;;;;;;5097521;28;20043;-79
2024/03/10 09:01:16;;;;;;;4.65;2.30;;;10.10;1.00;;;;;;5097661;28;20071;-80
2024/03/10 09:04:07;;;;;;;4.07;2.25;;;10.20;1.00;;;;;;5104761;28;20085;-80
2024/03/10 09:06:54;;;;;;;2.80;1.88;;;10.40;1.00;;;;;;5098386;28;20888;-78
2024/03/10 09:09:44;;;;;;;2.58;2.30;;;10.80;1.00;;;;;;5092873;28;20044;-80
2024/03/10 09:12:34;;;;;;;3.10;2.05;;;11.50;1.00;;;;;;5104298;28;20044;-79
2024/03/10 09:15:24;;;;;;;3.00;1.92;;;12.20;1.00;;;;;;5105539;28;20416;-77
2024/03/10 09:18:15;;;;;;;3.47;2.10;;;13.00;1.00;;;;;;5121798;28;20028;-81
2024/03/10 09:21:07;;;;;;;4.65;2.38;;;13.10;1.00;;;;;;5114265;28;20041;-81
2024/03/10 09:23:54;;;;;;;3.17;2.33;;;12.80;1.00;;;;;;5113527;28;20125;-77
2024/03/10 09:26:46;;;;;;;6.68;2.20;;;13.00;1.00;;;;;;5108340;28;20096;-79
2024/03/10 09:29:35;;;;;;;3.97;2.00;;;13.10;1.00;;;;;;5080820;28;20048;-79
2024/03/10 09:32:26;;;;;;;2.72;1.98;;;13.00;1.00;;;;;;5083497;28;20044;-79
2024/03/10 09:35:20;;;;;;;2.58;1.92;;;12.90;1.00;;;;;;5113644;28;20036;-81
2024/03/10 09:38:10;;;;;;;3.08;1.88;;;12.70;1.00;;;;;;5111418;28;20095;-80
2024/03/10 09:40:59;;;;;;;5.13;2.35;;;12.30;1.00;;;;;;5113796;28;20047;-76
2024/03/10 09:43:51;;;;;;;3.72;2.05;;;11.90;1.00;;;;;;5096241;28;20144;-80
2024/03/10 09:46:43;;;;;;;2.35;1.85;;;11.80;1.00;;;;;;5095748;28;20089;-79
2024/03/10 09:49:32;;;;;;;3.30;2.20;;;11.80;1.00;;;;;;5099520;28;20032;-80
2024/03/10 09:52:22;;;;;;;4.13;2.50;;;12.00;1.00;;;;;;5099358;28;20047;-78
2024/03/10 09:55:13;;;;;;;3.90;2.28;;;12.00;1.00;;;;;;5105547;27;20043;-79
2024/03/10 09:58:12;;;;;;;2.42;2.10;;;12.10;1.00;;;;;;5120163;27;20036;-79
2024/03/10 10:01:20;;;;;;;3.05;2.40;;;12.00;1.00;;;;;;5100643;28;20050;-80
2024/03/10 10:04:13;;;;;;;2.65;2.00;;;11.90;1.00;;;;;;5108884;27;20055;-81
2024/03/10 10:07:04;;;;;;;3.53;2.20;;;12.00;1.00;;;;;;5101607;27;20063;-79
2024/03/10 10:10:03;;;;;;;3.03;2.03;;;12.00;1.00;;;;;;5104221;27;20044;-78
2024/03/10 10:12:53;;;;;;;2.85;2.10;;;12.00;1.00;;;;;;5112212;27;20043;-76
2024/03/10 10:15:44;;;;;;;3.00;1.98;;;12.10;1.00;;;;;;5086173;27;20504;-78
2024/03/10 10:18:33;;;;;;;3.90;2.03;;;12.40;1.00;;;;;;5094622;27;20519;-78
2024/03/10 10:21:27;;;;;;;3.25;1.77;;;12.50;1.00;;;;;;5116009;27;20392;-77
2024/03/10 10:24:15;;;;;;;2.70;2.00;;;12.50;1.00;;;;;;5103069;27;20048;-75
2024/03/10 10:27:03;;;;;;;2.30;1.98;;;12.50;1.00;;;;;;5100179;27;20056;-77
2024/03/10 10:29:53;;;;;;;2.60;1.70;;;12.50;1.00;;;;;;5104026;27;20054;-78
2024/03/10 10:32:41;;;;;;;1.90;1.77;;;12.60;1.00;;;;;;5099816;28;20504;-78
2024/03/10 10:35:33;;;;;;;3.80;1.60;;;12.50;1.00;;;;;;5101866;27;20036;-78
2024/03/10 10:38:23;;;;;;;2.85;1.95;;;12.40;1.00;;;;;;5096142;28;20035;-77
2024/03/10 10:41:11;;;;;;;2.85;1.52;;;12.20;1.00;;;;;;5103248;27;20060;-77
2024/03/10 10:43:59;;;;;;;2.72;1.60;;;12.30;1.00;;;;;;5076290;28;20036;-77
2024/03/10 10:46:49;;;;;;;2.67;1.70;;;12.50;1.00;;;;;;5097446;28;20567;-77
2024/03/10 10:49:37;;;;;;;2.83;2.08;;;12.70;1.00;;;;;;5100022;27;20050;-78
2024/03/10 10:52:24;;;;;;;2.80;1.90;;;12.80;1.00;;;;;;5092160;28;20055;-80
2024/03/10 10:55:16;;;;;;;5.15;2.22;;;13.00;1.00;;;;;;5104552;28;20092;-78
2024/03/10 10:58:06;;;;;;;6.50;2.92;;;13.00;1.00;;;;;;5105373;28;20141;-82
2024/03/10 11:00:58;;;;;;;4.80;2.13;;;13.00;1.00;;;;;;5090187;28;20088;-78
2024/03/10 11:03:46;;;;;;;4.10;1.70;;;13.50;1.00;;;;;;5096950;28;20050;-79
2024/03/10 11:06:35;;;;;;;2.38;1.35;;;13.60;1.00;;;;;;5090879;28;20184;-78
2024/03/10 11:09:28;;;;;;;3.15;1.80;;;13.50;1.00;;;;;;5101976;28;20045;-80
2024/03/10 11:12:23;;;;;;;1.48;1.38;;;13.60;1.00;;;;;;5099925;27;20453;-79
2024/03/10 11:15:15;;;;;;;1.85;1.50;;;13.50;1.00;;;;;;5107058;27;20386;-79
2024/03/10 11:18:29;;;;;;;2.47;1.48;;;13.80;1.00;;;;;;5104856;28;20036;-79
2024/03/10 11:21:22;;;;;;;2.47;1.80;;;14.00;1.00;;;;;;5088555;28;20055;-80
2024/03/10 11:24:27;;;;;;;3.05;1.92;;;14.00;1.00;;;;;;5106378;28;20039;-79
2024/03/10 11:27:19;;;;;;;1.83;1.50;;;14.00;1.00;;;;;;5094386;28;20046;-80
2024/03/10 11:30:44;;;;;;;2.97;1.67;;;13.80;1.00;;;;;;5104372;28;20522;-78
2024/03/10 11:33:32;;;;;;;1.48;1.33;;;13.70;1.00;;;;;;5102322;28;20067;-78
2024/03/10 11:36:23;;;;;;;2.17;1.67;;;13.60;1.00;;;;;;5091269;28;20035;-76
2024/03/10 11:39:22;;;;;;;4.07;1.70;;;13.70;1.00;;;;;;5109607;27;20044;-77
2024/03/10 11:42:10;;;;;;;3.58;1.67;;;13.60;1.00;;;;;;5092899;28;20052;-78
2024/03/10 11:45:04;;;;;;;2.15;1.30;;;13.60;1.00;;;;;;5116904;27;20096;-80
2024/03/10 11:47:57;;;;;;;1.85;1.40;;;13.20;1.00;;;;;;5118949;27;20039;-77
2024/03/10 11:50:44;;;;;;;3.28;1.30;;;13.10;1.00;;;;;;5111166;28;20111;-76
2024/03/10 11:53:32;;;;;;;1.92;1.58;;;13.30;1.00;;;;;;5110850;27;20043;-78
2024/03/10 11:56:20;;;;;;;2.20;1.52;;;13.70;1.00;;;;;;5125718;27;20090;-75
2024/03/10 11:59:11;;;;;;;2.22;1.75;;;14.30;1.00;;;;;;5114689;28;20051;-79
2024/03/10 12:01:59;;;;;;;2.67;1.50;;;14.60;1.00;;;;;;5093008;28;20071;-78
2024/03/10 12:04:48;;;;;;;3.55;1.55;;;14.50;1.00;;;;;;5098591;28;20058;-78
2024/03/10 12:07:36;;;;;;;3.17;1.65;;;14.50;1.00;;;;;;5093178;28;20456;-78
2024/03/10 12:10:28;;;;;;;2.22;1.60;;;14.70;1.00;;;;;;5101330;27;20054;-77
2024/03/10 12:13:19;;;;;;;2.65;1.77;;;14.60;1.00;;;;;;5112634;28;20047;-78
2024/03/10 12:16:07;;;;;;;1.48;1.38;;;14.40;1.00;;;;;;5108070;28;20483;-77
2024/03/10 12:18:58;;;;;;;1.98;1.77;;;14.30;1.00;;;;;;5116685;27;20047;-77
2024/03/10 12:21:47;;;;;;;3.13;1.67;;;13.90;1.00;;;;;;5112987;27;20131;-78
2024/03/10 12:24:39;;;;;;;2.60;1.75;;;13.60;1.00;;;;;;5117546;27;20113;-79
2024/03/10 12:27:27;;;;;;;1.90;1.60;;;13.50;1.00;;;;;;5120767;27;20086;-78
2024/03/10 12:30:19;;;;;;;2.58;1.67;;;13.30;1.00;;;;;;5096316;28;20062;-78
2024/03/10 12:33:09;;;;;;;4.82;1.60;;;13.40;1.00;;;;;;5119515;28;20048;-78
2024/03/10 12:36:14;;;;;;;3.90;2.03;;;13.30;1.00;;;;;;5120872;28;20046;-78
2024/03/10 12:39:06;;;;;;;3.55;1.90;;;13.30;1.00;;;;;;5091631;28;20051;-77
2024/03/10 12:41:55;;;;;;;8.98;2.92;;;13.30;1.00;;;;;;5111714;28;20101;-78
2024/03/10 12:44:43;;;;;;;4.22;2.90;;;13.30;1.00;;;;;;5112325;28;20047;-76
2024/03/10 12:47:33;;;;;;;4.85;3.10;;;13.10;1.00;;;;;;5111747;28;20040;-77
2024/03/10 12:50:24;;;;;;;5.28;3.67;;;13.10;1.00;;;;;;5107721;28;20059;-78
2024/03/10 12:53:11;;;;;;;6.00;3.30;;;12.90;1.00;;;;;;5108353;28;20063;-77
2024/03/10 12:56:01;;;;;;;5.95;3.10;;;12.70;1.00;;;;;;5107709;28;20036;-78
2024/03/10 12:58:51;;;;;;;4.18;3.03;;;12.70;1.00;;;;;;5095289;28;20091;-81
2024/03/10 13:01:40;;;;;;;5.35;3.55;;;12.60;1.00;;;;;;5115664;28;20051;-79
2024/03/10 13:04:28;;;;;;;5.13;3.45;;;12.30;1.00;;;;;;5098882;28;20470;-77
2024/03/10 13:07:19;;;;;;;5.05;3.50;;;12.10;1.00;;;;;;5108477;28;20468;-79
2024/03/10 13:10:10;;;;;;;4.13;3.50;;;11.90;1.00;;;;;;5108817;28;20087;-78
2024/03/10 13:12:59;;;;;;;5.95;3.40;;;11.80;1.00;;;;;;5115335;28;20075;-78
2024/03/10 13:15:47;;;;;;;7.28;3.50;;;11.50;1.00;;;;;;5112248;28;20595;-77
2024/03/10 13:18:35;;;;;;;5.63;3.47;;;11.40;1.00;;;;;;5105412;28;20042;-80
2024/03/10 13:21:24;;;;;;;6.25;4.18;;;11.20;1.00;;;;;;5112762;28;20035;-78
2024/03/10 13:24:14;;;;;;;5.88;3.75;;;11.20;1.00;;;;;;5100671;28;20047;-77
2024/03/10 13:27:01;;;;;;;4.00;3.13;;;11.20;1.00;;;;;;5113214;28;20040;-80
2024/03/10 13:29:50;;;;;;;4.75;3.53;;;11.10;1.00;;;;;;5114727;28;20094;-77
2024/03/10 13:32:38;;;;;;;5.15;3.35;;;11.00;1.00;;;;;;5114643;27;20043;-79
2024/03/10 13:35:27;;;;;;;3.88;3.13;;;11.00;1.00;;;;;;5098348;28;20056;-79
2024/03/10 13:38:15;;;;;;;6.47;3.33;;;11.00;1.00;;;;;;5110372;28;20046;-79
2024/03/10 13:41:03;;;;;;;4.90;2.90;;;10.90;1.00;;;;;;5108753;27;20048;-79
2024/03/10 13:43:53;;;;;;;3.67;2.70;;;10.80;1.00;;;;;;5113191;28;20722;-78
2024/03/10 13:46:42;;;;;;;7.13;3.17;;;10.80;1.00;;;;;;5110500;28;20077;-78
2024/03/10 13:49:36;;;;;;;4.30;3.03;;;10.80;1.00;;;;;;5112972;27;20047;-78
2024/03/10 13:52:24;;;;;;;7.50;4.22;;;10.80;1.00;;;;;;5101931;28;20039;-81
2024/03/10 13:55:12;;;;;;;5.93;3.80;;;10.80;1.00;;;;;;5118038;27;20051;-78
2024/03/10 13:57:59;;;;;;;6.55;4.20;;;10.80;1.00;;;;;;5110702;28;20024;-79
2024/03/10 14:00:47;;;;;;;3.85;3.05;;;10.80;1.00;;;;;;5115648;28;20044;-78
2024/03/10 14:03:35;;;;;;;7.30;3.13;;;10.70;1.00;;;;;;5117348;28;20036;-79
2024/03/10 14:06:24;;;;;;;6.40;3.60;;;10.70;1.00;;;;;;5103357;28;20048;-79
2024/03/10 14:09:14;;;;;;;7.32;4.18;;;10.60;1.00;;;;;;5130249;27;20043;-79
2024/03/10 14:12:05;;;;;;;6.90;3.90;;;10.60;1.00;;;;;;5106620;28;20042;-77
2024/03/10 14:14:53;;;;;;;5.38;3.78;;;10.50;1.00;;;;;;5116852;27;20496;-80
2024/03/10 14:17:44;;;;;;;5.82;4.07;;;10.50;1.00;;;;;;5104819;28;20075;-79
2024/03/10 14:20:34;;;;;;;6.55;3.75;;;10.40;1.00;;;;;;5105129;27;20388;-78
2024/03/10 14:23:23;;;;;;;6.30;3.80;;;10.40;1.00;;;;;;5101457;28;20048;-80
2024/03/10 14:26:12;;;;;;;5.80;3.92;;;10.30;1.00;;;;;;5099104;28;20062;-80
2024/03/10 14:29:00;;;;;;;6.45;3.95;;;10.30;1.00;;;;;;5107482;27;20039;-80
2024/03/10 14:31:49;;;;;;;6.82;4.07;;;10.30;1.00;;;;;;5096401;28;20472;-81
2024/03/10 14:34:38;;;;;;;6.63;4.07;;;10.30;1.00;;;;;;5117926;28;20024;-80
2024/03/10 14:37:26;;;;;;;6.22;4.32;;;10.30;1.00;;;;;;5109378;27;20427;-79
2024/03/10 14:40:19;;;;;;;7.57;4.85;;;10.20;1.00;;;;;;5109177;28;20085;-78
2024/03/10 14:43:08;;;;;;;6.63;4.35;;;10.20;3.90;;;;;;5107172;28;20044;-76
2024/03/10 14:45:55;;;;;;;6.97;4.75;;;10.20;5.30;;;;;;5104347;28;20049;-78
2024/03/10 14:48:49;;;;;;;6.63;4.93;;;10.20;8.50;;;;;;5110343;27;20043;-77
2024/03/10 14:51:37;;;;;;;9.30;5.18;;;10.20;13.70;;;;;;5110465;27;20097;-80
2024/03/10 14:54:26;;;;;;;8.55;5.43;;;10.20;12.60;;;;;;5111155;27;20027;-77
2024/03/10 14:57:15;;;;;;;7.82;5.38;;;10.20;15.90;;;;;;5120696;27;20031;-80
2024/03/10 15:00:04;;;;;;;7.03;5.43;;;10.20;19.70;;;;;;5120068;28;20038;-77
2024/03/10 15:03:00;;;;;;;8.80;5.40;;;10.10;24.90;;;;;;5092611;27;20441;-78
2024/03/10 15:05:51;;;;;;;8.02;5.63;;;10.10;30.00;;;;;;5076284;28;20550;-77
2024/03/10 15:08:56;;;;;;;8.70;5.90;;;9.90;35.30;;;;;;5109941;27;20089;-79
2024/03/10 15:11:53;;;;;;;8.00;5.72;;;10.00;45.00;;;;;;5120591;27;20127;-78
2024/03/10 15:14:44;;;;;;;7.90;5.88;;;10.00;50.50;;;;;;5099276;28;20048;-79
2024/03/10 15:17:36;;;;;;;7.65;5.72;;;10.00;57.00;;;;;;5123797;27;20049;-80